createdAt,value
2019-06-01T00:00:11.085Z,15.16
2019-06-01T00:02:31.607Z,15.01
2019-06-01T00:04:59.146Z,15.14
2019-06-01T00:07:26.179Z,15.15
2019-06-01T00:09:54.291Z,15.11
2019-06-01T00:12:21.265Z,14.98
2019-06-01T00:14:50.020Z,15.18
2019-06-01T00:17:17.367Z,14.96
2019-06-01T00:19:46.253Z,14.98
2019-06-01T00:22:14.382Z,14.90
2019-06-01T00:24:41.832Z,15.01
2019-06-01T00:27:09.269Z,14.92
2019-06-01T00:29:37.013Z,15.00
2019-06-01T00:32:04.081Z,14.77
2019-06-01T00:34:32.153Z,14.91
2019-06-01T00:37:00.266Z,14.71
2019-06-01T00:39:27.413Z,14.60
2019-06-01T00:41:55.092Z,14.69
2019-06-01T00:44:22.892Z,14.68
2019-06-01T00:46:50.779Z,14.57
2019-06-01T00:49:18.890Z,14.74
2019-06-01T00:51:47.012Z,14.81
2019-06-01T00:54:14.886Z,14.73
2019-06-01T00:56:43.384Z,14.68
2019-06-01T00:59:11.630Z,14.70
2019-06-01T01:01:38.988Z,14.60
2019-06-01T01:04:06.248Z,14.53
2019-06-01T01:06:33.367Z,14.50
2019-06-01T01:09:00.723Z,14.59
2019-06-01T01:11:28.429Z,14.52
2019-06-01T01:13:56.073Z,14.42
2019-06-01T01:16:24.485Z,14.60
2019-06-01T01:18:52.220Z,14.62
2019-06-01T01:21:20.187Z,14.51
2019-06-01T01:23:48.218Z,14.54
2019-06-01T01:26:15.605Z,14.55
2019-06-01T01:28:43.154Z,14.50
2019-06-01T01:31:14.225Z,14.44
2019-06-01T01:33:41.430Z,14.57
2019-06-01T01:36:08.873Z,14.51
2019-06-01T01:38:36.373Z,14.48
2019-06-01T01:41:03.718Z,14.41
2019-06-01T01:43:31.246Z,14.36
2019-06-01T01:45:59.010Z,14.34
2019-06-01T01:48:26.769Z,14.21
2019-06-01T01:50:54.375Z,13.93
2019-06-01T01:53:21.894Z,13.73
2019-06-01T01:55:50.907Z,13.68
2019-06-01T01:58:19.673Z,13.68
2019-06-01T02:00:47.227Z,13.69
2019-06-01T02:03:15.269Z,13.78
2019-06-01T02:05:42.682Z,13.77
2019-06-01T02:08:10.593Z,13.84
2019-06-01T02:10:37.797Z,13.86
2019-06-01T02:13:06.302Z,13.88
2019-06-01T02:15:34.480Z,13.92
2019-06-01T02:18:02.875Z,13.88
2019-06-01T02:20:30.528Z,13.90
2019-06-01T02:22:58.938Z,13.86
2019-06-01T02:25:26.466Z,13.64
2019-06-01T02:27:55.043Z,13.60
2019-06-01T02:30:22.911Z,13.33
2019-06-01T02:32:53.650Z,13.17
2019-06-01T02:35:22.258Z,13.17
2019-06-01T02:37:54.721Z,13.11
2019-06-01T02:40:28.609Z,13.05
2019-06-01T02:42:59.287Z,12.91
2019-06-01T02:45:28.834Z,13.06
2019-06-01T02:47:57.508Z,13.15
2019-06-01T02:50:24.769Z,13.19
2019-06-01T02:52:52.571Z,13.17
2019-06-01T02:55:19.647Z,12.99
2019-06-01T02:57:47.166Z,12.96
2019-06-01T03:00:16.793Z,12.97
2019-06-01T03:02:44.909Z,12.93
2019-06-01T03:05:12.692Z,13.03
2019-06-01T03:07:41.759Z,13.06
2019-06-01T03:10:10.036Z,13.05
2019-06-01T03:12:44.602Z,13.06
2019-06-01T03:15:12.476Z,13.15
2019-06-01T03:17:44.682Z,13.20
2019-06-01T03:20:13.673Z,13.11
2019-06-01T03:22:42.312Z,12.71
2019-06-01T03:25:12.255Z,12.73
2019-06-01T03:27:42.910Z,12.61
2019-06-01T03:30:14.798Z,12.64
2019-06-01T03:32:40.980Z,12.64
2019-06-01T03:35:08.837Z,12.62
2019-06-01T03:37:36.653Z,12.66
2019-06-01T03:40:06.744Z,12.56
2019-06-01T03:42:34.756Z,12.68
2019-06-01T03:45:03.391Z,12.75
2019-06-01T03:47:31.247Z,12.56
2019-06-01T03:49:58.959Z,12.62
2019-06-01T03:52:26.717Z,12.61
2019-06-01T03:54:53.746Z,12.74
2019-06-01T03:57:21.971Z,12.76
2019-06-01T03:59:50.377Z,12.71
2019-06-01T04:02:32.261Z,12.81
2019-06-01T04:04:47.404Z,12.88
2019-06-01T04:07:14.793Z,12.83
2019-06-01T04:09:41.790Z,12.94
2019-06-01T04:12:10.279Z,12.88
2019-06-01T04:14:37.592Z,13.02
2019-06-01T04:17:06.101Z,12.98
2019-06-01T04:19:33.704Z,13.17
2019-06-01T04:22:01.977Z,13.16
2019-06-01T04:24:29.908Z,13.31
2019-06-01T04:26:57.247Z,13.17
2019-06-01T04:29:24.961Z,13.62
2019-06-01T04:31:52.659Z,13.63
2019-06-01T04:34:21.010Z,13.83
2019-06-01T04:36:48.143Z,13.96
2019-06-01T04:39:16.667Z,13.90
2019-06-01T04:41:44.187Z,14.16
2019-06-01T04:44:12.220Z,14.15
2019-06-01T04:46:39.730Z,14.31
2019-06-01T04:49:08.563Z,14.46
2019-06-01T04:51:36.593Z,14.42
2019-06-01T04:54:04.837Z,14.54
2019-06-01T04:56:32.843Z,14.49
2019-06-01T04:59:00.893Z,14.43
2019-06-01T05:01:29.036Z,14.37
2019-06-01T05:03:56.512Z,14.38
2019-06-01T05:06:24.733Z,14.52
2019-06-01T05:08:52.696Z,14.70
2019-06-01T05:11:20.525Z,14.82
2019-06-01T05:13:47.621Z,14.97
2019-06-01T05:16:16.456Z,15.24
2019-06-01T05:18:45.213Z,15.27
2019-06-01T05:21:15.182Z,15.41
2019-06-01T05:23:43.366Z,15.26
2019-06-01T05:26:10.981Z,15.40
2019-06-01T05:28:38.982Z,15.35
2019-06-01T05:31:09.646Z,15.50
2019-06-01T05:33:37.770Z,15.77
2019-06-01T05:36:05.371Z,15.85
2019-06-01T05:38:33.926Z,15.99
2019-06-01T05:41:02.091Z,16.26
2019-06-01T05:43:29.460Z,16.17
2019-06-01T05:45:57.120Z,15.80
2019-06-01T05:48:29.818Z,16.14
2019-06-01T05:50:54.335Z,16.24
2019-06-01T05:53:23.090Z,16.15
2019-06-01T05:55:50.681Z,16.66
2019-06-01T05:58:19.501Z,16.38
2019-06-01T06:00:47.081Z,16.75
2019-06-01T06:03:20.389Z,16.88
2019-06-01T06:05:44.678Z,17.02
2019-06-01T06:08:14.324Z,16.88
2019-06-01T06:10:42.020Z,17.18
2019-06-01T06:13:11.002Z,17.25
2019-06-01T06:15:38.133Z,17.55
2019-06-01T06:18:05.541Z,17.56
2019-06-01T06:20:32.599Z,17.34
2019-06-01T06:22:59.851Z,17.40
2019-06-01T06:25:31.580Z,17.34
2019-06-01T06:27:59.530Z,17.58
2019-06-01T06:30:27.440Z,17.74
2019-06-01T06:32:55.190Z,17.62
2019-06-01T06:35:23.686Z,17.64
2019-06-01T06:37:51.379Z,17.69
2019-06-01T06:40:20.022Z,17.73
2019-06-01T06:42:47.639Z,17.89
2019-06-01T06:45:16.530Z,17.89
2019-06-01T06:47:44.184Z,18.10
2019-06-01T06:50:17.506Z,18.17
2019-06-01T06:52:45.320Z,18.44
2019-06-01T06:55:12.368Z,18.47
2019-06-01T06:57:40.145Z,18.33
2019-06-01T07:00:07.627Z,18.26
2019-06-01T07:02:35.684Z,18.32
2019-06-01T07:05:03.399Z,18.37
2019-06-01T07:07:30.924Z,18.52
2019-06-01T07:09:58.367Z,18.71
2019-06-01T07:12:27.504Z,19.09
2019-06-01T07:15:09.040Z,19.13
2019-06-01T07:17:37.126Z,19.14
2019-06-01T07:20:04.970Z,19.17
2019-06-01T07:22:32.425Z,19.31
2019-06-01T07:24:59.513Z,19.22
2019-06-01T07:27:28.259Z,19.46
2019-06-01T07:29:56.214Z,19.76
2019-06-01T07:32:24.644Z,19.85
2019-06-01T07:34:52.586Z,19.67
2019-06-01T07:37:20.705Z,19.71
2019-06-01T07:39:47.864Z,19.72
2019-06-01T07:42:14.955Z,19.98
2019-06-01T07:44:42.433Z,19.92
2019-06-01T07:47:10.160Z,19.96
2019-06-01T07:49:37.525Z,20.09
2019-06-01T07:52:12.605Z,20.15
2019-06-01T07:54:33.587Z,20.38
2019-06-01T07:57:01.326Z,20.45
2019-06-01T07:59:30.446Z,20.55
2019-06-01T08:01:57.755Z,20.53
2019-06-01T08:04:26.706Z,20.39
2019-06-01T08:06:54.659Z,20.56
2019-06-01T08:09:24.015Z,20.42
2019-06-01T08:11:52.123Z,20.44
2019-06-01T08:14:19.881Z,20.54
2019-06-01T08:16:47.294Z,20.78
2019-06-01T08:19:14.711Z,20.74
2019-06-01T08:21:42.225Z,20.75
2019-06-01T08:24:10.048Z,20.82
2019-06-01T08:26:37.458Z,20.77
2019-06-01T08:29:05.124Z,20.91
2019-06-01T08:31:33.695Z,21.10
2019-06-01T08:34:01.083Z,21.09
2019-06-01T08:36:29.479Z,21.25
2019-06-01T08:38:56.559Z,21.28
2019-06-01T08:41:23.620Z,21.35
2019-06-01T08:43:51.605Z,21.58
2019-06-01T08:46:18.656Z,21.81
2019-06-01T08:48:46.076Z,21.79
2019-06-01T08:51:13.193Z,21.77
2019-06-01T08:53:40.274Z,21.69
2019-06-01T08:56:07.351Z,21.72
2019-06-01T08:58:34.688Z,21.59
2019-06-01T09:01:02.164Z,21.77
2019-06-01T09:03:30.049Z,21.79
2019-06-01T09:06:08.521Z,21.87
2019-06-01T09:08:37.024Z,22.43
2019-06-01T09:11:09.222Z,22.45
2019-06-01T09:13:36.749Z,22.19
2019-06-01T09:16:04.223Z,22.13
2019-06-01T09:18:31.654Z,22.14
2019-06-01T09:20:59.491Z,22.17
2019-06-01T09:23:27.631Z,22.33
2019-06-01T09:25:55.573Z,22.36
2019-06-01T09:28:24.114Z,22.45
2019-06-01T09:30:52.023Z,22.59
2019-06-01T09:33:19.067Z,22.71
2019-06-01T09:35:55.962Z,22.94
2019-06-01T09:38:17.532Z,22.86
2019-06-01T09:40:45.774Z,22.88
2019-06-01T09:43:12.958Z,23.02
2019-06-01T09:45:40.091Z,22.66
2019-06-01T09:48:07.473Z,22.96
2019-06-01T09:50:35.484Z,22.82
2019-06-01T09:53:04.521Z,22.83
2019-06-01T09:55:34.381Z,23.14
2019-06-01T09:58:02.238Z,23.36
2019-06-01T10:00:30.356Z,23.03
2019-06-01T10:02:58.147Z,23.41
2019-06-01T10:05:25.528Z,23.41
2019-06-01T10:07:52.676Z,23.41
2019-06-01T10:10:20.372Z,23.51
2019-06-01T10:12:47.427Z,23.52
2019-06-01T10:15:15.398Z,23.81
2019-06-01T10:17:43.177Z,23.71
2019-06-01T10:20:11.102Z,24.03
2019-06-01T10:22:39.662Z,24.43
2019-06-01T10:25:07.886Z,24.27
2019-06-01T10:27:35.038Z,24.47
2019-06-01T10:30:02.189Z,24.07
2019-06-01T10:32:29.860Z,24.40
2019-06-01T10:34:57.679Z,24.47
2019-06-01T10:37:25.920Z,24.63
2019-06-01T10:39:53.691Z,24.81
2019-06-01T10:42:20.820Z,25.01
2019-06-01T10:44:47.888Z,25.02
2019-06-01T10:47:15.231Z,24.80
2019-06-01T10:49:42.311Z,24.49
2019-06-01T10:52:09.771Z,24.86
2019-06-01T10:54:38.195Z,25.07
2019-06-01T10:57:06.511Z,24.78
2019-06-01T10:59:34.273Z,24.78
2019-06-01T11:02:02.168Z,25.41
2019-06-01T11:04:29.522Z,25.28
2019-06-01T11:06:56.945Z,25.59
2019-06-01T11:09:25.504Z,25.89
2019-06-01T11:11:52.952Z,26.08
2019-06-01T11:14:20.287Z,26.09
2019-06-01T11:16:54.914Z,25.91
2019-06-01T11:19:17.015Z,26.10
2019-06-01T11:21:44.153Z,26.03
2019-06-01T11:24:12.263Z,25.95
2019-06-01T11:26:39.797Z,25.62
2019-06-01T11:29:07.901Z,25.67
2019-06-01T11:31:36.294Z,25.41
2019-06-01T11:34:03.781Z,25.92
2019-06-01T11:36:30.813Z,26.25
2019-06-01T11:38:58.566Z,26.18
2019-06-01T11:41:26.025Z,25.75
2019-06-01T11:43:53.398Z,26.26
2019-06-01T11:46:20.516Z,26.41
2019-06-01T11:48:48.033Z,26.81
2019-06-01T11:51:15.478Z,26.52
2019-06-01T11:53:43.571Z,26.77
2019-06-01T11:56:11.778Z,26.76
2019-06-01T11:58:39.297Z,26.91
2019-06-01T12:01:06.561Z,27.04
2019-06-01T12:03:33.947Z,26.88
2019-06-01T12:06:01.621Z,27.40
2019-06-01T12:08:35.962Z,27.23
2019-06-01T12:11:03.657Z,26.83
2019-06-01T12:13:31.600Z,26.75
2019-06-01T12:15:58.955Z,26.64
2019-06-01T12:18:26.368Z,27.42
2019-06-01T12:20:54.542Z,26.75
2019-06-01T12:23:22.172Z,26.91
2019-06-01T12:25:50.019Z,26.90
2019-06-01T12:28:17.111Z,26.44
2019-06-01T12:30:45.729Z,27.19
2019-06-01T12:33:13.746Z,27.74
2019-06-01T12:35:42.030Z,27.38
2019-06-01T12:38:09.525Z,27.19
2019-06-01T12:40:37.290Z,27.81
2019-06-01T12:43:04.415Z,28.16
2019-06-01T12:45:32.142Z,28.13
2019-06-01T12:48:00.201Z,27.77
2019-06-01T12:50:27.274Z,28.12
2019-06-01T12:52:55.100Z,28.07
2019-06-01T12:55:22.685Z,27.48
2019-06-01T12:57:51.272Z,28.08
2019-06-01T13:00:18.747Z,28.61
2019-06-01T13:02:54.673Z,28.62
2019-06-01T13:05:15.290Z,28.51
2019-06-01T13:07:57.548Z,28.27
2019-06-01T13:10:13.269Z,27.93
2019-06-01T13:12:41.134Z,28.75
2019-06-01T13:15:08.962Z,28.77
2019-06-01T13:17:36.047Z,28.62
2019-06-01T13:20:03.776Z,28.62
2019-06-01T13:22:31.862Z,28.47
2019-06-01T13:24:58.891Z,28.98
2019-06-01T13:27:26.522Z,28.76
2019-06-01T13:29:53.925Z,28.89
2019-06-01T13:32:21.530Z,28.39
2019-06-01T13:34:51.112Z,28.86
2019-06-01T13:37:19.070Z,28.70
2019-06-01T13:39:52.443Z,28.60
2019-06-01T13:42:16.500Z,28.36
2019-06-01T13:44:45.179Z,28.34
2019-06-01T13:47:13.104Z,28.88
2019-06-01T13:49:40.563Z,28.71
2019-06-01T13:52:08.527Z,28.97
2019-06-01T13:54:40.029Z,28.68
2019-06-01T13:57:05.700Z,28.19
2019-06-01T13:59:32.769Z,28.22
2019-06-01T14:02:00.503Z,27.74
2019-06-01T14:04:27.858Z,28.13
2019-06-01T14:06:55.537Z,28.38
2019-06-01T14:09:22.560Z,28.35
2019-06-01T14:11:49.657Z,28.66
2019-06-01T14:14:16.992Z,28.13
2019-06-01T14:16:45.479Z,28.17
2019-06-01T14:19:13.834Z,28.39
2019-06-01T14:21:41.096Z,28.21
2019-06-01T14:24:08.680Z,28.14
2019-06-01T14:26:35.699Z,28.41
2019-06-01T14:29:03.749Z,28.29
2019-06-01T14:31:31.143Z,28.25
2019-06-01T14:33:58.553Z,28.54
2019-06-01T14:36:26.325Z,28.76
2019-06-01T14:38:55.164Z,28.86
2019-06-01T14:41:23.180Z,28.84
2019-06-01T14:43:51.228Z,28.49
2019-06-01T14:46:18.733Z,28.59
2019-06-01T14:48:47.385Z,28.67
2019-06-01T14:51:14.787Z,28.15
2019-06-01T14:53:42.912Z,28.41
2019-06-01T14:56:11.004Z,28.63
2019-06-01T14:58:38.658Z,28.75
2019-06-01T15:01:06.426Z,28.99
2019-06-01T15:03:33.518Z,28.46
2019-06-01T15:06:01.137Z,28.80
2019-06-01T15:08:28.723Z,28.66
2019-06-01T15:10:57.091Z,28.48
2019-06-01T15:13:27.801Z,28.83
2019-06-01T15:15:55.590Z,28.53
2019-06-01T15:18:23.501Z,28.15
2019-06-01T15:20:51.767Z,28.52
2019-06-01T15:23:19.133Z,28.39
2019-06-01T15:25:47.546Z,28.03
2019-06-01T15:28:15.041Z,27.88
2019-06-01T15:30:42.480Z,28.16
2019-06-01T15:33:09.924Z,28.28
2019-06-01T15:35:39.795Z,28.32
2019-06-01T15:38:07.553Z,27.83
2019-06-01T15:40:35.685Z,28.20
2019-06-01T15:43:03.400Z,27.97
2019-06-01T15:45:30.831Z,28.10
2019-06-01T15:47:57.948Z,28.19
2019-06-01T15:50:25.400Z,28.49
2019-06-01T15:52:53.061Z,28.56
2019-06-01T15:55:21.143Z,28.74
2019-06-01T15:57:48.661Z,28.42
2019-06-01T16:00:16.441Z,28.35
2019-06-01T16:02:44.272Z,28.60
2019-06-01T16:05:12.851Z,28.39
2019-06-01T16:07:40.288Z,28.47
2019-06-01T16:10:08.530Z,28.60
2019-06-01T16:12:36.309Z,28.31
2019-06-01T16:15:04.621Z,28.22
2019-06-01T16:17:32.602Z,28.28
2019-06-01T16:20:02.323Z,27.59
2019-06-01T16:22:31.096Z,27.83
2019-06-01T16:24:58.852Z,27.89
2019-06-01T16:27:25.954Z,27.69
2019-06-01T16:29:54.559Z,28.24
2019-06-01T16:32:22.167Z,28.12
2019-06-01T16:34:49.588Z,28.29
2019-06-01T16:37:17.551Z,28.36
2019-06-01T16:39:58.292Z,28.18
2019-06-01T16:42:14.667Z,28.15
2019-06-01T16:44:42.238Z,28.38
2019-06-01T16:47:10.287Z,28.32
2019-06-01T16:49:37.643Z,27.74
2019-06-01T16:52:05.255Z,27.59
2019-06-01T16:54:33.067Z,27.39
2019-06-01T16:57:00.600Z,27.56
2019-06-01T16:59:27.966Z,27.91
2019-06-01T17:01:56.512Z,27.80
2019-06-01T17:04:23.718Z,27.73
2019-06-01T17:06:51.310Z,27.57
2019-06-01T17:09:18.824Z,27.53
2019-06-01T17:11:46.690Z,27.49
2019-06-01T17:14:14.173Z,27.51
2019-06-01T17:16:42.387Z,27.22
2019-06-01T17:19:09.456Z,27.42
2019-06-01T17:21:36.876Z,27.07
2019-06-01T17:24:04.661Z,27.12
2019-06-01T17:26:32.730Z,27.11
2019-06-01T17:29:00.337Z,27.16
2019-06-01T17:31:28.034Z,27.21
2019-06-01T17:33:55.497Z,27.08
2019-06-01T17:36:23.308Z,27.07
2019-06-01T17:38:51.373Z,27.10
2019-06-01T17:41:18.789Z,27.08
2019-06-01T17:43:46.250Z,27.31
2019-06-01T17:46:14.262Z,27.34
2019-06-01T17:48:42.271Z,27.08
2019-06-01T17:51:09.759Z,26.80
2019-06-01T17:53:37.551Z,26.96
2019-06-01T17:56:06.055Z,26.71
2019-06-01T17:58:33.319Z,26.75
2019-06-01T18:01:04.270Z,26.81
2019-06-01T18:03:31.787Z,26.80
2019-06-01T18:05:59.079Z,26.82
2019-06-01T18:08:26.505Z,26.72
2019-06-01T18:10:55.136Z,26.44
2019-06-01T18:13:22.791Z,26.17
2019-06-01T18:15:50.615Z,26.12
2019-06-01T18:18:18.203Z,26.04
2019-06-01T18:20:45.719Z,26.03
2019-06-01T18:23:13.502Z,25.99
2019-06-01T18:25:41.182Z,25.87
2019-06-01T18:28:16.255Z,25.82
2019-06-01T18:30:38.786Z,25.73
2019-06-01T18:33:07.081Z,25.80
2019-06-01T18:35:34.564Z,25.49
2019-06-01T18:38:06.107Z,25.35
2019-06-01T18:40:33.702Z,25.38
2019-06-01T18:43:05.793Z,25.29
2019-06-01T18:45:33.929Z,25.37
2019-06-01T18:48:03.525Z,25.30
2019-06-01T18:50:31.414Z,25.23
2019-06-01T18:52:59.041Z,25.15
2019-06-01T18:55:27.797Z,25.10
2019-06-01T18:57:58.470Z,24.87
2019-06-01T19:00:25.932Z,24.88
2019-06-01T19:02:53.637Z,24.86
2019-06-01T19:05:21.225Z,24.76
2019-06-01T19:07:48.811Z,24.56
2019-06-01T19:10:17.795Z,24.21
2019-06-01T19:12:44.870Z,23.95
2019-06-01T19:15:25.070Z,23.94
2019-06-01T19:17:41.451Z,23.87
2019-06-01T19:20:11.044Z,23.80
2019-06-01T19:22:39.035Z,23.73
2019-06-01T19:25:08.623Z,23.77
2019-06-01T19:27:36.555Z,23.82
2019-06-01T19:30:05.108Z,23.73
2019-06-01T19:32:32.188Z,23.60
2019-06-01T19:35:00.363Z,23.54
2019-06-01T19:37:28.087Z,23.28
2019-06-01T19:39:55.620Z,23.35
2019-06-01T19:42:23.440Z,23.33
2019-06-01T19:44:51.194Z,23.19
2019-06-01T19:47:19.169Z,23.08
2019-06-01T19:49:46.411Z,22.83
2019-06-01T19:52:14.793Z,22.78
2019-06-01T19:54:42.773Z,22.44
2019-06-01T19:57:10.176Z,22.39
2019-06-01T19:59:37.234Z,22.41
2019-06-01T20:02:04.325Z,22.42
2019-06-01T20:04:32.094Z,22.40
2019-06-01T20:06:59.846Z,22.13
2019-06-01T20:09:26.930Z,22.11
2019-06-01T20:12:01.827Z,21.89
2019-06-01T20:14:23.675Z,21.95
2019-06-01T20:16:51.318Z,21.94
2019-06-01T20:19:19.827Z,21.91
2019-06-01T20:21:47.690Z,21.87
2019-06-01T20:24:15.303Z,21.85
2019-06-01T20:26:48.919Z,21.64
2019-06-01T20:29:12.816Z,21.60
2019-06-01T20:31:41.563Z,21.41
2019-06-01T20:34:08.997Z,21.27
2019-06-01T20:36:36.075Z,21.40
2019-06-01T20:39:05.668Z,21.34
2019-06-01T20:41:33.503Z,21.27
2019-06-01T20:44:01.137Z,20.85
2019-06-01T20:46:28.622Z,20.64
2019-06-01T20:48:56.058Z,20.93
2019-06-01T20:51:26.890Z,20.86
2019-06-01T20:53:52.421Z,20.63
2019-06-01T20:56:21.377Z,20.51
2019-06-01T20:58:49.043Z,20.44
2019-06-01T21:01:17.670Z,20.50
2019-06-01T21:03:44.837Z,20.71
2019-06-01T21:06:13.827Z,20.81
2019-06-01T21:08:40.972Z,20.76
2019-06-01T21:11:08.409Z,20.63
2019-06-01T21:13:35.849Z,20.32
2019-06-01T21:16:03.505Z,20.22
2019-06-01T21:18:30.987Z,20.26
2019-06-01T21:20:58.452Z,20.49
2019-06-01T21:23:26.531Z,20.31
2019-06-01T21:25:54.215Z,20.01
2019-06-01T21:28:22.482Z,19.96
2019-06-01T21:30:50.936Z,20.03
2019-06-01T21:33:19.763Z,20.04
2019-06-01T21:35:47.603Z,19.79
2019-06-01T21:38:15.302Z,19.74
2019-06-01T21:40:43.150Z,19.74
2019-06-01T21:43:23.514Z,19.75
2019-06-01T21:45:39.609Z,19.86
2019-06-01T21:48:07.036Z,19.35
2019-06-01T21:50:34.141Z,19.40
2019-06-01T21:53:01.638Z,19.09
2019-06-01T21:55:29.136Z,19.19
2019-06-01T21:57:57.049Z,19.19
2019-06-01T22:00:30.244Z,19.16
2019-06-01T22:02:57.771Z,18.97
2019-06-01T22:05:25.445Z,19.10
2019-06-01T22:07:52.899Z,19.19
2019-06-01T22:10:21.099Z,18.92
2019-06-01T22:12:48.856Z,18.65
2019-06-01T22:15:17.584Z,18.69
2019-06-01T22:17:45.016Z,18.49
2019-06-01T22:20:12.777Z,18.48
2019-06-01T22:22:40.630Z,18.52
2019-06-01T22:25:07.754Z,18.71
2019-06-01T22:27:35.556Z,18.71
2019-06-01T22:30:04.643Z,18.79
2019-06-01T22:32:31.974Z,18.69
2019-06-01T22:34:59.380Z,18.68
2019-06-01T22:37:28.190Z,18.83
2019-06-01T22:39:55.832Z,18.19
2019-06-01T22:42:24.320Z,18.01
2019-06-01T22:44:52.225Z,18.01
2019-06-01T22:47:20.441Z,18.18
2019-06-01T22:49:47.977Z,18.21
2019-06-01T22:52:15.352Z,18.32
2019-06-01T22:54:42.440Z,18.33
2019-06-01T22:57:10.158Z,18.24
2019-06-01T22:59:37.259Z,18.21
2019-06-01T23:02:04.765Z,18.36
2019-06-01T23:04:32.056Z,18.49
2019-06-01T23:06:59.542Z,18.46
2019-06-01T23:09:27.438Z,18.16
2019-06-01T23:11:54.869Z,18.34
2019-06-01T23:14:23.310Z,18.40
2019-06-01T23:16:51.011Z,18.47
2019-06-01T23:19:19.472Z,18.49
2019-06-01T23:21:47.159Z,18.47
2019-06-01T23:24:14.958Z,18.22
2019-06-01T23:26:42.024Z,18.13
2019-06-01T23:29:09.467Z,17.94
2019-06-01T23:31:37.260Z,18.16
2019-06-01T23:34:04.697Z,18.20
2019-06-01T23:36:32.918Z,18.00
2019-06-01T23:39:00.332Z,17.82
2019-06-01T23:41:28.734Z,17.82
2019-06-01T23:44:11.233Z,17.92
2019-06-01T23:46:26.901Z,17.99
2019-06-01T23:48:54.272Z,17.83
2019-06-01T23:51:21.391Z,17.97
2019-06-01T23:53:48.864Z,17.62
2019-06-01T23:56:16.670Z,17.70
2019-06-01T23:58:44.529Z,17.85
